createdAt,value
2022-11-05T00:01:42.651Z,97.29
2022-11-05T00:04:29.801Z,97.42
2022-11-05T00:07:15.518Z,97.38
2022-11-05T00:09:39.409Z,96.77
2022-11-05T00:12:24.539Z,97.71
2022-11-05T00:15:05.630Z,96.23
2022-11-05T00:17:29.225Z,95.84
2022-11-05T00:19:54.104Z,95.95
2022-11-05T00:22:34.985Z,96.37
2022-11-05T00:25:16.921Z,95.61
2022-11-05T00:27:40.561Z,95.14
2022-11-05T00:30:04.432Z,95.47
2022-11-05T00:32:28.097Z,95.29
2022-11-05T00:34:52.983Z,95.30
2022-11-05T00:37:16.578Z,96.17
2022-11-05T00:39:40.145Z,96.20
2022-11-05T00:42:20.998Z,95.59
2022-11-05T00:45:02.644Z,95.13
2022-11-05T00:47:43.794Z,94.85
2022-11-05T00:50:10.803Z,95.56
2022-11-05T00:52:51.866Z,95.17
2022-11-05T00:55:15.977Z,96.03
2022-11-05T00:57:39.484Z,95.31
2022-11-05T01:00:03.055Z,94.73
2022-11-05T01:02:26.717Z,93.87
2022-11-05T01:04:50.466Z,93.51
2022-11-05T01:07:15.407Z,93.25
2022-11-05T01:09:39.024Z,92.13
2022-11-05T01:12:02.587Z,93.00
2022-11-05T01:14:26.150Z,93.68
2022-11-05T01:16:49.722Z,92.80
2022-11-05T01:19:13.892Z,93.70
2022-11-05T01:21:37.501Z,94.30
2022-11-05T01:24:02.893Z,93.56
2022-11-05T01:26:26.459Z,92.79
2022-11-05T01:28:52.932Z,92.73
2022-11-05T01:31:16.567Z,91.89
2022-11-05T01:33:40.155Z,92.24
2022-11-05T01:36:06.025Z,91.78
2022-11-05T01:38:29.615Z,92.09
2022-11-05T01:40:54.530Z,92.58
2022-11-05T01:43:21.185Z,93.99
2022-11-05T01:45:45.835Z,92.72
2022-11-05T01:48:16.979Z,93.68
2022-11-05T01:50:47.447Z,93.55
2022-11-05T01:53:19.809Z,92.36
2022-11-05T01:55:49.334Z,93.36
2022-11-05T01:58:19.080Z,92.65
2022-11-05T02:00:43.989Z,92.69
2022-11-05T02:03:07.852Z,92.35
2022-11-05T02:05:32.156Z,92.61
2022-11-05T02:07:56.534Z,92.88
2022-11-05T02:10:20.968Z,92.88
2022-11-05T02:12:46.949Z,93.43
2022-11-05T02:15:14.832Z,93.59
2022-11-05T02:17:52.444Z,93.44
2022-11-05T02:20:33.437Z,93.98
2022-11-05T02:23:42.194Z,93.70
2022-11-05T02:26:50.441Z,92.31
2022-11-05T02:30:14.358Z,92.44
2022-11-05T02:33:18.888Z,92.35
2022-11-05T02:36:21.336Z,92.03
2022-11-05T02:38:53.262Z,91.64
2022-11-05T02:41:25.646Z,92.02
2022-11-05T02:44:00.597Z,93.13
2022-11-05T02:46:34.467Z,92.59
2022-11-05T02:49:07.159Z,90.92
2022-11-05T02:51:36.613Z,91.37
2022-11-05T02:54:10.742Z,90.36
2022-11-05T02:56:37.763Z,90.38
2022-11-05T02:59:01.281Z,90.87
2022-11-05T03:01:25.007Z,91.05
2022-11-05T03:03:52.454Z,90.90
2022-11-05T03:06:46.348Z,90.33
2022-11-05T03:09:59.559Z,90.97
2022-11-05T03:12:34.323Z,90.57
2022-11-05T03:15:09.001Z,90.60
2022-11-05T03:17:46.221Z,90.70
2022-11-05T03:20:20.111Z,90.81
2022-11-05T03:22:52.477Z,91.00
2022-11-05T03:25:21.988Z,90.93
2022-11-05T03:27:49.150Z,89.78
2022-11-05T03:30:16.294Z,89.92
2022-11-05T03:32:45.345Z,90.53
2022-11-05T03:35:15.008Z,90.52
2022-11-05T03:37:43.144Z,90.27
2022-11-05T03:40:11.285Z,90.98
2022-11-05T03:42:38.852Z,90.11
2022-11-05T03:45:12.143Z,89.52
2022-11-05T03:47:42.458Z,90.11
2022-11-05T03:50:15.688Z,90.32
2022-11-05T03:52:49.106Z,90.28
2022-11-05T03:55:14.176Z,90.63
2022-11-05T03:57:40.652Z,91.97
2022-11-05T04:00:10.151Z,90.79
2022-11-05T04:02:36.521Z,90.49
2022-11-05T04:05:00.145Z,91.16
2022-11-05T04:07:41.432Z,91.96
2022-11-05T04:10:23.420Z,92.75
2022-11-05T04:13:05.812Z,92.19
2022-11-05T04:15:30.374Z,93.10
2022-11-05T04:17:52.945Z,92.34
2022-11-05T04:20:33.966Z,92.24
2022-11-05T04:23:19.258Z,92.03
2022-11-05T04:25:42.921Z,93.52
2022-11-05T04:28:08.066Z,93.94
2022-11-05T04:30:30.724Z,93.42
2022-11-05T04:33:04.302Z,93.29
2022-11-05T04:35:29.625Z,92.66
2022-11-05T04:37:54.562Z,93.39
2022-11-05T04:40:18.198Z,92.79
2022-11-05T04:42:41.698Z,94.98
2022-11-05T04:45:07.460Z,93.59
2022-11-05T04:47:31.060Z,92.74
2022-11-05T04:49:54.621Z,93.97
2022-11-05T04:52:18.125Z,93.63
2022-11-05T04:54:41.711Z,93.64
2022-11-05T04:57:05.352Z,92.54
2022-11-05T04:59:28.922Z,92.02
2022-11-05T05:01:54.929Z,93.61
2022-11-05T05:04:18.555Z,92.93
2022-11-05T05:06:42.097Z,92.09
2022-11-05T05:09:05.789Z,92.18
2022-11-05T05:11:29.321Z,92.50
2022-11-05T05:13:52.871Z,92.48
2022-11-05T05:16:21.490Z,93.39
2022-11-05T05:18:46.726Z,93.11
2022-11-05T05:21:28.248Z,91.99
2022-11-05T05:23:51.917Z,92.76
2022-11-05T05:26:15.602Z,92.68
2022-11-05T05:28:39.282Z,92.73
2022-11-05T05:31:03.158Z,93.68
2022-11-05T05:33:26.774Z,92.76
2022-11-05T05:35:51.716Z,92.08
2022-11-05T05:38:15.278Z,91.43
2022-11-05T05:40:38.780Z,91.94
2022-11-05T05:43:02.373Z,93.20
2022-11-05T05:45:25.910Z,93.36
2022-11-05T05:47:49.514Z,92.67
2022-11-05T05:50:13.061Z,92.61
2022-11-05T05:52:38.027Z,94.69
2022-11-05T05:55:01.575Z,94.08
2022-11-05T05:57:25.222Z,92.21
2022-11-05T05:59:48.736Z,92.84
2022-11-05T06:02:12.813Z,92.35
2022-11-05T06:04:36.425Z,93.08
2022-11-05T06:06:59.989Z,92.86
2022-11-05T06:09:25.058Z,93.01
2022-11-05T06:11:48.645Z,93.70
2022-11-05T06:14:13.234Z,94.95
2022-11-05T06:16:39.005Z,94.54
2022-11-05T06:19:02.758Z,95.55
2022-11-05T06:21:26.323Z,95.73
2022-11-05T06:23:49.946Z,96.59
2022-11-05T06:26:17.163Z,95.42
2022-11-05T06:28:42.096Z,95.08
2022-11-05T06:31:06.749Z,94.53
2022-11-05T06:33:30.597Z,94.71
2022-11-05T06:35:54.338Z,96.37
2022-11-05T06:38:17.943Z,96.28
2022-11-05T06:40:41.557Z,96.12
2022-11-05T06:43:06.453Z,95.66
2022-11-05T06:45:30.061Z,96.46
2022-11-05T06:48:00.388Z,96.13
2022-11-05T06:50:24.185Z,96.97
2022-11-05T06:52:55.610Z,95.48
2022-11-05T06:55:19.169Z,96.67
2022-11-05T06:57:42.737Z,95.89
2022-11-05T07:00:10.818Z,96.74
2022-11-05T07:02:34.317Z,97.22
2022-11-05T07:04:57.886Z,95.94
2022-11-05T07:07:21.449Z,95.94
2022-11-05T07:09:45.001Z,96.18
2022-11-05T07:12:09.352Z,96.31
2022-11-05T07:14:32.961Z,97.06
2022-11-05T07:16:58.525Z,97.63
2022-11-05T07:19:22.710Z,98.23
2022-11-05T07:21:48.538Z,98.55
2022-11-05T07:24:12.337Z,99.11
2022-11-05T07:26:35.955Z,97.56
2022-11-05T07:28:59.813Z,98.86
2022-11-05T07:31:23.561Z,98.63
2022-11-05T07:33:48.815Z,99.40
2022-11-05T07:36:12.425Z,99.59
2022-11-05T07:38:35.985Z,98.88
2022-11-05T07:41:01.089Z,97.85
2022-11-05T07:43:24.701Z,97.26
2022-11-05T07:45:48.386Z,97.99
2022-11-05T07:48:11.984Z,97.65
2022-11-05T07:50:38.480Z,96.17
2022-11-05T07:53:03.388Z,96.65
2022-11-05T07:55:26.914Z,97.64
2022-11-05T07:57:52.000Z,97.62
2022-11-05T08:00:19.974Z,96.25
2022-11-05T08:02:44.047Z,96.09
2022-11-05T08:05:08.830Z,95.94
2022-11-05T08:07:33.944Z,95.41
2022-11-05T08:09:57.803Z,95.81
2022-11-05T08:12:21.418Z,94.66
2022-11-05T08:14:45.475Z,94.85
2022-11-05T08:17:09.028Z,95.65
2022-11-05T08:19:32.582Z,95.90
2022-11-05T08:21:56.181Z,95.73
2022-11-05T08:24:21.097Z,95.28
2022-11-05T08:26:44.688Z,96.03
2022-11-05T08:29:08.234Z,96.08
2022-11-05T08:31:32.169Z,95.27
2022-11-05T08:34:01.276Z,94.59
2022-11-05T08:36:25.965Z,94.19
2022-11-05T08:38:49.494Z,93.38
2022-11-05T08:41:14.577Z,92.66
2022-11-05T08:43:38.111Z,92.33
2022-11-05T08:46:02.265Z,92.94
2022-11-05T08:48:25.842Z,91.27
2022-11-05T08:50:50.725Z,91.31
2022-11-05T08:53:15.084Z,90.78
2022-11-05T08:55:39.217Z,89.61
2022-11-05T08:58:07.567Z,88.52
2022-11-05T09:00:34.907Z,86.24
2022-11-05T09:03:01.278Z,83.76
2022-11-05T09:05:24.961Z,83.21
2022-11-05T09:07:48.701Z,82.17
2022-11-05T09:10:12.660Z,78.84
2022-11-05T09:12:36.178Z,78.28
2022-11-05T09:15:01.155Z,79.01
2022-11-05T09:17:24.868Z,76.76
2022-11-05T09:19:49.847Z,76.66
2022-11-05T09:22:13.852Z,76.27
2022-11-05T09:24:37.505Z,74.61
2022-11-05T09:27:01.012Z,73.50
2022-11-05T09:29:24.545Z,70.71
2022-11-05T09:31:49.544Z,71.26
2022-11-05T09:34:13.140Z,70.17
2022-11-05T09:36:36.669Z,69.75
2022-11-05T09:39:00.277Z,70.79
2022-11-05T09:41:32.181Z,69.21
2022-11-05T09:43:59.457Z,66.90
2022-11-05T09:46:27.193Z,66.42
2022-11-05T09:48:58.109Z,65.38
2022-11-05T09:51:24.341Z,66.01
2022-11-05T09:53:48.466Z,66.12
2022-11-05T09:56:24.320Z,66.35
2022-11-05T09:58:53.246Z,65.04
2022-11-05T10:01:23.571Z,63.85
2022-11-05T10:03:52.287Z,63.33
2022-11-05T10:06:22.758Z,66.49
2022-11-05T10:08:51.503Z,62.62
2022-11-05T10:11:20.080Z,64.71
2022-11-05T10:13:48.304Z,64.77
2022-11-05T10:16:23.976Z,68.85
2022-11-05T10:18:54.937Z,68.00
2022-11-05T10:21:37.661Z,70.48
2022-11-05T10:24:13.545Z,70.83
2022-11-05T10:26:37.116Z,71.44
2022-11-05T10:29:00.811Z,70.54
2022-11-05T10:31:29.315Z,72.97
2022-11-05T10:34:02.426Z,71.14
2022-11-05T10:36:29.213Z,70.42
2022-11-05T10:38:53.002Z,71.01
2022-11-05T10:41:41.427Z,71.30
2022-11-05T10:44:25.540Z,69.26
2022-11-05T10:46:57.575Z,69.58
2022-11-05T10:49:40.933Z,71.63
2022-11-05T10:52:21.709Z,69.68
2022-11-05T10:54:46.486Z,72.03
2022-11-05T10:57:34.456Z,70.98
2022-11-05T11:00:22.489Z,70.62
2022-11-05T11:02:49.367Z,73.29
2022-11-05T11:05:22.926Z,70.06
2022-11-05T11:07:54.686Z,71.02
2022-11-05T11:10:23.009Z,72.00
2022-11-05T11:12:48.741Z,73.60
2022-11-05T11:15:17.096Z,72.01
2022-11-05T11:17:40.910Z,71.53
2022-11-05T11:20:23.615Z,72.69
2022-11-05T11:23:11.407Z,70.83
2022-11-05T11:25:42.725Z,73.88
2022-11-05T11:28:11.766Z,71.95
2022-11-05T11:30:35.493Z,74.12
2022-11-05T11:33:11.981Z,73.06
2022-11-05T11:35:39.579Z,74.13
2022-11-05T11:38:03.165Z,73.56
2022-11-05T11:40:32.949Z,71.72
2022-11-05T11:43:00.382Z,72.30
2022-11-05T11:45:31.255Z,71.24
2022-11-05T11:47:58.064Z,73.40
2022-11-05T11:50:40.001Z,72.48
2022-11-05T11:53:36.964Z,72.11
2022-11-05T11:56:07.614Z,72.16
2022-11-05T11:58:45.026Z,71.77
2022-11-05T12:01:43.529Z,73.29
2022-11-05T12:04:32.651Z,72.19
2022-11-05T12:07:20.183Z,70.29
2022-11-05T12:10:05.071Z,71.87
2022-11-05T12:12:37.200Z,70.20
2022-11-05T12:15:16.822Z,71.91
2022-11-05T12:17:49.741Z,72.33
2022-11-05T12:20:40.398Z,72.31
2022-11-05T12:23:34.704Z,70.44
2022-11-05T12:26:08.885Z,69.76
2022-11-05T12:29:23.331Z,70.74
2022-11-05T12:31:59.341Z,70.92
2022-11-05T12:34:40.603Z,71.46
2022-11-05T12:37:20.373Z,70.47
2022-11-05T12:40:02.786Z,69.40
2022-11-05T12:42:44.010Z,67.26
2022-11-05T12:45:23.793Z,68.68
2022-11-05T12:48:11.705Z,68.29
2022-11-05T12:50:42.885Z,71.20
2022-11-05T12:53:30.865Z,71.82
2022-11-05T12:55:58.947Z,70.41
2022-11-05T12:58:27.506Z,70.05
2022-11-05T13:01:00.674Z,69.46
2022-11-05T13:03:38.281Z,71.15
2022-11-05T13:06:07.758Z,71.90
2022-11-05T13:08:38.304Z,70.63
2022-11-05T13:11:21.881Z,70.94
2022-11-05T13:13:54.765Z,70.48
2022-11-05T13:16:27.206Z,72.61
2022-11-05T13:18:56.265Z,70.76
2022-11-05T13:21:24.159Z,70.37
2022-11-05T13:23:53.223Z,71.25
2022-11-05T13:26:24.172Z,71.57
2022-11-05T13:28:57.801Z,71.45
2022-11-05T13:31:30.650Z,72.78
2022-11-05T13:33:55.785Z,72.84
2022-11-05T13:36:41.434Z,71.79
2022-11-05T13:39:23.161Z,72.00
2022-11-05T13:42:20.649Z,71.52
2022-11-05T13:45:28.615Z,72.97
2022-11-05T13:48:13.856Z,72.42
2022-11-05T13:51:34.769Z,70.97
2022-11-05T13:54:37.314Z,71.47
2022-11-05T13:57:23.066Z,71.50
2022-11-05T14:00:04.066Z,71.20
2022-11-05T14:02:36.668Z,71.90
2022-11-05T14:05:02.291Z,71.29
2022-11-05T14:07:30.001Z,71.30
2022-11-05T14:09:57.581Z,71.12
2022-11-05T14:12:28.171Z,71.54
2022-11-05T14:14:58.858Z,71.29
2022-11-05T14:17:56.796Z,72.31
2022-11-05T14:20:47.216Z,71.90
2022-11-05T14:23:51.146Z,72.67
2022-11-05T14:26:22.069Z,72.10
2022-11-05T14:29:04.337Z,71.66
2022-11-05T14:34:48.286Z,71.85
2022-11-05T14:37:37.066Z,72.34
2022-11-05T14:40:37.880Z,73.66
2022-11-05T14:43:04.584Z,73.77
2022-11-05T14:45:33.853Z,74.72
2022-11-05T14:48:00.165Z,73.71
2022-11-05T14:50:36.352Z,74.05
2022-11-05T14:53:08.254Z,74.56
2022-11-05T14:55:36.305Z,74.41
2022-11-05T14:58:30.055Z,74.04
2022-11-05T15:00:56.180Z,74.40
2022-11-05T15:04:16.234Z,75.39
2022-11-05T15:06:39.899Z,75.25
2022-11-05T15:09:22.745Z,76.11
2022-11-05T15:12:09.091Z,76.92
2022-11-05T15:14:37.814Z,77.01
2022-11-05T15:17:16.471Z,77.13
2022-11-05T15:19:42.776Z,77.42
2022-11-05T15:22:13.970Z,77.52
2022-11-05T15:24:38.026Z,77.50
2022-11-05T15:27:14.801Z,78.71
2022-11-05T15:29:38.724Z,79.24
2022-11-05T15:32:04.032Z,79.59
2022-11-05T15:34:31.051Z,79.98
2022-11-05T15:36:57.333Z,79.92
2022-11-05T15:39:30.518Z,80.42
2022-11-05T15:41:54.344Z,80.95
2022-11-05T15:44:29.945Z,79.94
2022-11-05T15:47:13.721Z,80.02
2022-11-05T15:49:38.007Z,80.92
2022-11-05T15:52:01.563Z,80.96
2022-11-05T15:54:30.279Z,81.55
2022-11-05T15:56:58.189Z,81.52
2022-11-05T15:59:23.883Z,81.85
2022-11-05T16:01:49.834Z,81.57
2022-11-05T16:04:18.946Z,81.83
2022-11-05T16:06:45.959Z,81.91
2022-11-05T16:09:21.681Z,81.94
2022-11-05T16:11:45.255Z,82.33
2022-11-05T16:14:17.000Z,83.14
2022-11-05T16:16:40.808Z,83.13
2022-11-05T16:19:42.524Z,83.42
2022-11-05T16:22:06.988Z,83.90
2022-11-05T16:24:30.557Z,83.29
2022-11-05T16:27:04.330Z,83.53
2022-11-05T16:29:32.178Z,83.86
2022-11-05T16:31:57.650Z,84.48
2022-11-05T16:34:28.683Z,84.57
2022-11-05T16:36:56.949Z,84.08
2022-11-05T16:39:20.513Z,84.92
2022-11-05T16:41:44.478Z,84.32
2022-11-05T16:44:09.970Z,84.43
2022-11-05T16:46:34.104Z,84.62
2022-11-05T16:48:58.318Z,84.39
2022-11-05T16:51:27.249Z,84.49
2022-11-05T16:53:52.484Z,84.52
2022-11-05T16:56:20.025Z,84.75
2022-11-05T16:58:46.502Z,84.71
2022-11-05T17:01:17.936Z,84.18
2022-11-05T17:03:41.586Z,85.17
2022-11-05T17:06:05.478Z,84.65
2022-11-05T17:08:29.597Z,84.63
2022-11-05T17:10:54.566Z,85.07
2022-11-05T17:13:20.032Z,85.33
2022-11-05T17:15:45.454Z,84.85
2022-11-05T17:18:12.704Z,85.47
2022-11-05T17:20:42.670Z,85.80
2022-11-05T17:23:07.441Z,85.54
2022-11-05T17:25:31.136Z,85.21
2022-11-05T17:27:56.185Z,84.52
2022-11-05T17:30:20.429Z,85.65
2022-11-05T17:32:44.136Z,86.33
2022-11-05T17:35:08.957Z,85.75
2022-11-05T17:37:33.708Z,85.33
2022-11-05T17:39:57.247Z,85.72
2022-11-05T17:42:20.830Z,86.00
2022-11-05T17:44:45.765Z,86.17
2022-11-05T17:47:09.352Z,86.37
2022-11-05T17:49:32.920Z,86.40
2022-11-05T17:51:56.529Z,84.42
2022-11-05T17:54:20.054Z,86.63
2022-11-05T17:56:44.867Z,85.77
2022-11-05T17:59:08.544Z,86.62
2022-11-05T18:01:37.386Z,86.15
2022-11-05T18:04:07.127Z,86.11
2022-11-05T18:06:32.578Z,86.51
2022-11-05T18:08:56.117Z,86.79
2022-11-05T18:11:19.718Z,86.71
2022-11-05T18:13:43.382Z,85.20
2022-11-05T18:16:07.786Z,86.89
2022-11-05T18:18:32.691Z,86.33
2022-11-05T18:20:59.025Z,86.40
2022-11-05T18:23:22.535Z,86.49
2022-11-05T18:25:46.100Z,87.44
2022-11-05T18:28:10.525Z,86.68
2022-11-05T18:30:34.507Z,87.07
2022-11-05T18:32:58.025Z,86.31
2022-11-05T18:35:23.098Z,86.99
2022-11-05T18:37:46.632Z,86.16
2022-11-05T18:40:11.650Z,86.17
2022-11-05T18:42:35.245Z,86.70
2022-11-05T18:44:58.841Z,86.65
2022-11-05T18:47:22.820Z,86.46
2022-11-05T18:49:46.400Z,86.15
2022-11-05T18:52:11.309Z,86.78
2022-11-05T18:54:34.940Z,85.79
2022-11-05T18:56:58.660Z,86.04
2022-11-05T18:59:35.875Z,85.88
2022-11-05T19:02:00.812Z,86.55
2022-11-05T19:04:24.554Z,86.71
2022-11-05T19:06:48.163Z,86.18
2022-11-05T19:09:13.183Z,86.52
2022-11-05T19:11:36.865Z,87.33
2022-11-05T19:14:00.690Z,87.41
2022-11-05T19:16:28.722Z,87.58
2022-11-05T19:18:52.678Z,87.05
2022-11-05T19:21:19.662Z,87.18
2022-11-05T19:23:43.545Z,86.88
2022-11-05T19:26:09.974Z,87.05
2022-11-05T19:28:33.982Z,86.68
2022-11-05T19:30:57.564Z,87.70
2022-11-05T19:33:21.114Z,87.45
2022-11-05T19:35:45.671Z,86.65
2022-11-05T19:38:09.619Z,86.59
2022-11-05T19:40:33.668Z,86.86
2022-11-05T19:42:58.645Z,87.66
2022-11-05T19:45:43.387Z,87.55
2022-11-05T19:48:07.169Z,87.46
2022-11-05T19:50:30.714Z,87.60
2022-11-05T19:52:54.391Z,87.25
2022-11-05T19:55:17.997Z,87.44
2022-11-05T19:57:41.657Z,87.81
2022-11-05T20:00:08.802Z,88.32
2022-11-05T20:02:34.328Z,89.07
2022-11-05T20:04:57.974Z,88.57
2022-11-05T20:07:21.823Z,88.79
2022-11-05T20:09:45.360Z,89.83
2022-11-05T20:12:09.257Z,88.94
2022-11-05T20:14:33.391Z,87.95
2022-11-05T20:16:58.393Z,87.88
2022-11-05T20:19:23.930Z,87.21
2022-11-05T20:21:47.819Z,87.35
2022-11-05T20:24:15.241Z,87.24
2022-11-05T20:26:42.384Z,86.67
2022-11-05T20:29:06.565Z,87.10
2022-11-05T20:31:30.372Z,86.39
2022-11-05T20:33:55.309Z,86.73
2022-11-05T20:36:24.633Z,86.03
2022-11-05T20:38:50.250Z,86.79
2022-11-05T20:41:14.393Z,86.26
2022-11-05T20:43:38.317Z,86.73
2022-11-05T20:46:01.863Z,87.97
2022-11-05T20:48:25.456Z,87.12
2022-11-05T20:50:50.618Z,87.30
2022-11-05T20:53:14.965Z,86.79
2022-11-05T20:55:43.352Z,87.31
2022-11-05T20:58:07.069Z,87.19
2022-11-05T21:00:30.648Z,87.16
2022-11-05T21:02:54.354Z,87.10
2022-11-05T21:05:19.312Z,86.68
2022-11-05T21:07:44.447Z,85.98
2022-11-05T21:10:08.614Z,87.01
2022-11-05T21:12:32.198Z,86.89
2022-11-05T21:14:56.087Z,87.03
2022-11-05T21:17:20.179Z,87.26
2022-11-05T21:19:43.688Z,86.58
2022-11-05T21:22:08.177Z,85.39
2022-11-05T21:24:33.427Z,86.88
2022-11-05T21:26:57.056Z,86.70
2022-11-05T21:29:21.111Z,86.60
2022-11-05T21:31:45.090Z,85.96
2022-11-05T21:34:09.104Z,86.46
2022-11-05T21:36:32.779Z,86.86
2022-11-05T21:38:56.328Z,86.86
2022-11-05T21:41:21.337Z,86.86
2022-11-05T21:43:44.954Z,86.99
2022-11-05T21:46:08.531Z,86.96
2022-11-05T21:48:32.856Z,86.68
2022-11-05T21:51:13.850Z,86.05
2022-11-05T21:53:54.897Z,85.87
2022-11-05T21:56:40.524Z,87.09
2022-11-05T21:59:22.430Z,86.81
2022-11-05T22:01:46.206Z,87.41
2022-11-05T22:04:09.789Z,86.90
2022-11-05T22:06:34.244Z,87.22
2022-11-05T22:08:57.823Z,86.83
2022-11-05T22:11:22.818Z,86.76
2022-11-05T22:13:46.363Z,86.26
2022-11-05T22:16:10.498Z,86.75
2022-11-05T22:18:34.041Z,87.70
2022-11-05T22:20:57.649Z,86.38
2022-11-05T22:23:21.219Z,87.06
2022-11-05T22:25:44.860Z,87.33
2022-11-05T22:28:09.981Z,87.35
2022-11-05T22:30:35.570Z,86.82
2022-11-05T22:32:59.093Z,86.23
2022-11-05T22:35:22.679Z,87.13
2022-11-05T22:37:46.541Z,86.50
2022-11-05T22:40:11.156Z,87.22
2022-11-05T22:42:34.727Z,87.84
2022-11-05T22:44:59.737Z,86.92
2022-11-05T22:47:23.260Z,86.29
2022-11-05T22:49:46.850Z,85.78
2022-11-05T22:52:10.415Z,87.72
2022-11-05T22:54:38.811Z,86.47
2022-11-05T22:57:02.852Z,86.32
2022-11-05T22:59:26.551Z,88.53
2022-11-05T23:01:51.615Z,87.73
2022-11-05T23:04:16.836Z,86.75
2022-11-05T23:06:58.282Z,87.64
2022-11-05T23:09:42.735Z,87.65
2022-11-05T23:12:21.865Z,88.45
2022-11-05T23:14:45.453Z,88.77
2022-11-05T23:17:28.294Z,88.64
2022-11-05T23:20:09.198Z,87.76
2022-11-05T23:22:51.181Z,89.11
2022-11-05T23:25:18.388Z,88.59
2022-11-05T23:27:42.766Z,87.91
2022-11-05T23:30:10.285Z,87.58
2022-11-05T23:32:35.846Z,87.44
2022-11-05T23:35:00.257Z,87.20
2022-11-05T23:37:44.469Z,87.32
2022-11-05T23:40:13.709Z,88.56
2022-11-05T23:42:55.001Z,88.43
2022-11-05T23:45:36.379Z,88.49
2022-11-05T23:48:19.969Z,89.19
2022-11-05T23:50:44.248Z,88.00
2022-11-05T23:53:08.479Z,88.45
2022-11-05T23:55:32.317Z,87.88
2022-11-05T23:57:56.166Z,87.87
